createdAt,value
2023-04-19T00:02:10.536Z,8.95
2023-04-19T00:04:40.432Z,9.40
2023-04-19T00:07:10.266Z,11.65
2023-04-19T00:09:39.984Z,7.40
2023-04-19T00:12:09.617Z,10.10
2023-04-19T00:14:39.315Z,10.43
2023-04-19T00:17:09.138Z,14.73
2023-04-19T00:19:39.261Z,17.30
2023-04-19T00:22:08.953Z,16.25
2023-04-19T00:24:38.648Z,19.77
2023-04-19T00:27:08.413Z,22.65
2023-04-19T00:29:40.605Z,21.83
2023-04-19T00:32:11.109Z,21.58
2023-04-19T00:34:40.796Z,21.30
2023-04-19T00:37:14.445Z,15.25
2023-04-19T00:39:44.203Z,16.15
2023-04-19T00:42:13.841Z,18.88
2023-04-19T00:44:44.167Z,13.48
2023-04-19T00:47:13.879Z,12.45
2023-04-19T00:49:43.572Z,21.05
2023-04-19T00:52:14.324Z,8.38
2023-04-19T00:54:44.029Z,14.15
2023-04-19T00:57:16.356Z,11.30
2023-04-19T00:59:46.232Z,19.60
2023-04-19T01:02:16.830Z,18.30
2023-04-19T01:04:46.974Z,19.58
2023-04-19T01:07:17.144Z,25.80
2023-04-19T01:09:47.016Z,14.35
2023-04-19T01:12:16.738Z,11.52
2023-04-19T01:14:47.309Z,10.80
2023-04-19T01:17:17.016Z,14.15
2023-04-19T01:19:46.706Z,11.00
2023-04-19T01:22:25.237Z,12.45
2023-04-19T01:24:54.849Z,12.70
2023-04-19T01:27:25.419Z,11.65
2023-04-19T01:29:55.089Z,10.10
2023-04-19T01:32:24.827Z,10.60
2023-04-19T01:34:54.978Z,22.80
2023-04-19T01:37:24.755Z,11.80
2023-04-19T01:39:54.452Z,9.48
2023-04-19T01:42:24.405Z,12.73
2023-04-19T01:44:54.110Z,13.05
2023-04-19T01:47:24.555Z,11.25
2023-04-19T01:49:54.218Z,15.45
2023-04-19T01:52:23.939Z,19.95
2023-04-19T01:54:53.681Z,13.15
2023-04-19T01:57:23.388Z,13.13
2023-04-19T01:59:55.492Z,12.57
2023-04-19T02:02:25.352Z,7.60
2023-04-19T02:04:55.040Z,9.20
2023-04-19T02:07:24.753Z,6.72
2023-04-19T02:09:54.480Z,7.45
2023-04-19T02:12:24.977Z,6.07
2023-04-19T02:14:54.744Z,7.90
2023-04-19T02:17:24.471Z,7.25
2023-04-19T02:19:54.761Z,6.78
2023-04-19T02:22:24.522Z,7.15
2023-04-19T02:24:54.235Z,5.10
2023-04-19T02:27:23.996Z,6.43
2023-04-19T02:29:53.677Z,7.07
2023-04-19T02:32:39.411Z,4.82
2023-04-19T02:37:48.673Z,5.50
2023-04-19T02:40:18.374Z,3.28
2023-04-19T02:42:47.989Z,4.60
2023-04-19T02:45:17.777Z,2.80
2023-04-19T02:47:48.289Z,4.47
2023-04-19T02:50:18.912Z,4.35
2023-04-19T02:52:55.232Z,3.15
2023-04-19T02:55:24.959Z,4.15
2023-04-19T02:57:54.695Z,5.78
2023-04-19T03:00:24.354Z,3.95
2023-04-19T03:02:54.261Z,4.20
2023-04-19T03:05:24.488Z,4.63
2023-04-19T03:07:54.227Z,4.93
2023-04-19T03:10:27.802Z,3.22
2023-04-19T03:12:57.470Z,4.20
2023-04-19T03:15:27.128Z,3.67
2023-04-19T03:17:56.945Z,4.03
2023-04-19T03:20:27.010Z,2.63
2023-04-19T03:22:56.657Z,6.90
2023-04-19T03:25:26.375Z,3.53
2023-04-19T03:27:56.228Z,5.82
2023-04-19T03:30:25.875Z,3.83
2023-04-19T03:32:55.610Z,3.75
2023-04-19T03:35:27.806Z,4.53
2023-04-19T03:37:57.484Z,4.05
2023-04-19T03:40:27.192Z,2.60
2023-04-19T03:42:56.999Z,3.28
2023-04-19T03:45:26.834Z,3.08
2023-04-19T03:47:56.613Z,4.05
2023-04-19T03:50:26.340Z,4.18
2023-04-19T03:52:56.357Z,3.28
2023-04-19T03:55:25.977Z,2.70
2023-04-19T03:57:55.664Z,2.42
2023-04-19T04:00:29.075Z,3.80
2023-04-19T04:02:58.970Z,2.97
2023-04-19T04:05:30.738Z,3.05
2023-04-19T04:08:00.625Z,4.95
2023-04-19T04:10:30.241Z,2.53
2023-04-19T04:12:59.887Z,3.85
2023-04-19T04:15:29.588Z,3.13
2023-04-19T04:17:59.297Z,4.50
2023-04-19T04:20:29.034Z,5.45
2023-04-19T04:22:58.736Z,4.28
2023-04-19T04:25:30.448Z,3.47
2023-04-19T04:28:00.132Z,4.85
2023-04-19T04:30:30.265Z,4.78
2023-04-19T04:33:00.528Z,3.55
2023-04-19T04:35:31.498Z,3.55
2023-04-19T04:38:11.059Z,2.67
2023-04-19T04:40:57.305Z,2.75
2023-04-19T04:43:30.539Z,2.25
2023-04-19T04:46:03.253Z,3.83
2023-04-19T04:48:33.113Z,3.88
2023-04-19T04:51:02.809Z,4.03
2023-04-19T04:53:32.539Z,2.97
2023-04-19T04:56:02.260Z,3.95
2023-04-19T04:58:32.041Z,3.33
2023-04-19T05:01:01.820Z,3.17
2023-04-19T05:03:34.782Z,3.70
2023-04-19T05:06:07.891Z,7.18
2023-04-19T05:08:37.659Z,4.47
2023-04-19T05:11:07.406Z,5.07
2023-04-19T05:13:37.299Z,4.78
2023-04-19T05:16:07.333Z,20.50
2023-04-19T05:18:40.610Z,13.68
2023-04-19T05:21:12.147Z,16.80
2023-04-19T05:23:41.873Z,13.35
2023-04-19T05:26:14.265Z,13.68
2023-04-19T05:28:45.836Z,15.48
2023-04-19T05:31:15.725Z,12.63
2023-04-19T05:33:45.489Z,10.48
2023-04-19T05:36:15.241Z,12.63
2023-04-19T05:38:44.948Z,10.95
2023-04-19T05:41:14.652Z,11.77
2023-04-19T05:43:44.334Z,7.82
2023-04-19T05:46:14.097Z,5.40
2023-04-19T05:48:43.743Z,6.50
2023-04-19T05:51:13.703Z,8.27
2023-04-19T05:53:43.381Z,8.02
2023-04-19T05:56:13.010Z,4.38
2023-04-19T05:58:42.637Z,6.03
2023-04-19T06:01:12.435Z,6.60
2023-04-19T06:03:42.400Z,6.00
2023-04-19T06:06:12.272Z,6.45
2023-04-19T06:08:42.010Z,7.63
2023-04-19T06:11:20.165Z,6.55
2023-04-19T06:13:54.582Z,6.32
2023-04-19T06:16:24.330Z,5.32
2023-04-19T06:18:54.040Z,5.75
2023-04-19T06:21:23.648Z,7.05
2023-04-19T06:23:53.342Z,5.80
2023-04-19T06:26:23.276Z,5.20
2023-04-19T06:28:53.042Z,6.05
2023-04-19T06:31:22.723Z,6.43
2023-04-19T06:33:52.578Z,6.65
2023-04-19T06:36:22.711Z,8.07
2023-04-19T06:38:52.505Z,6.32
2023-04-19T06:41:22.193Z,3.78
2023-04-19T06:43:51.937Z,3.92
2023-04-19T06:46:21.679Z,6.32
2023-04-19T06:48:51.446Z,4.10
2023-04-19T06:51:21.159Z,5.95
2023-04-19T06:53:52.736Z,5.82
2023-04-19T06:56:40.929Z,4.47
2023-04-19T06:59:10.622Z,4.78
2023-04-19T07:01:41.357Z,5.30
2023-04-19T07:04:11.251Z,5.75
2023-04-19T07:06:41.148Z,6.95
2023-04-19T07:09:10.869Z,4.82
2023-04-19T07:11:40.672Z,4.65
2023-04-19T07:14:10.338Z,4.85
2023-04-19T07:16:39.891Z,6.35
2023-04-19T07:19:09.556Z,6.75
2023-04-19T07:21:40.742Z,9.02
2023-04-19T07:24:10.516Z,10.02
2023-04-19T07:26:40.303Z,7.55
2023-04-19T07:29:10.590Z,7.65
2023-04-19T07:31:40.445Z,8.32
2023-04-19T07:34:10.515Z,8.25
2023-04-19T07:36:40.630Z,7.78
2023-04-19T07:39:10.607Z,8.40
2023-04-19T07:41:40.667Z,7.72
2023-04-19T07:44:13.005Z,8.65
2023-04-19T07:46:45.902Z,10.10
2023-04-19T07:49:16.308Z,7.45
2023-04-19T07:51:45.927Z,10.35
2023-04-19T07:54:18.208Z,9.57
2023-04-19T07:56:50.860Z,13.77
2023-04-19T07:59:20.592Z,7.60
2023-04-19T08:01:51.124Z,7.78
2023-04-19T08:04:21.793Z,9.00
2023-04-19T08:06:51.761Z,7.70
2023-04-19T08:09:21.536Z,7.60
2023-04-19T08:11:51.273Z,7.50
2023-04-19T08:14:34.693Z,7.63
2023-04-19T08:17:23.985Z,8.38
2023-04-19T08:19:56.667Z,7.72
2023-04-19T08:22:26.305Z,6.82
2023-04-19T08:24:55.988Z,6.70
2023-04-19T08:27:28.556Z,9.27
2023-04-19T08:29:58.161Z,6.63
2023-04-19T08:32:27.808Z,7.00
2023-04-19T08:34:58.852Z,6.47
2023-04-19T08:37:28.862Z,10.52
2023-04-19T08:39:58.496Z,7.63
2023-04-19T08:42:35.489Z,9.25
2023-04-19T08:45:26.914Z,7.20
2023-04-19T08:48:01.844Z,9.90
2023-04-19T08:50:40.466Z,6.57
2023-04-19T08:53:24.609Z,7.80
2023-04-19T08:56:12.945Z,9.82
2023-04-19T08:59:03.909Z,8.57
2023-04-19T09:01:40.437Z,8.13
2023-04-19T09:04:34.448Z,7.50
2023-04-19T09:07:00.898Z,10.43
2023-04-19T09:12:04.713Z,8.15
2023-04-19T09:14:34.353Z,9.55
2023-04-19T09:17:19.069Z,10.02
2023-04-19T09:19:51.841Z,9.75
2023-04-19T09:22:21.612Z,10.57
2023-04-19T09:27:37.826Z,11.88
2023-04-19T09:30:12.758Z,9.55
2023-04-19T09:32:50.736Z,11.57
2023-04-19T09:35:20.472Z,13.95
2023-04-19T09:38:06.694Z,11.68
2023-04-19T09:40:36.867Z,11.60
2023-04-19T09:43:26.255Z,10.68
2023-04-19T09:45:56.142Z,11.27
2023-04-19T09:48:25.850Z,12.07
2023-04-19T09:51:05.816Z,12.40
2023-04-19T09:53:38.821Z,13.43
2023-04-19T09:56:08.845Z,11.90
2023-04-19T09:58:50.230Z,12.43
2023-04-19T10:01:24.268Z,11.85
2023-04-19T10:03:54.447Z,14.18
2023-04-19T10:09:00.331Z,12.48
2023-04-19T10:11:32.049Z,14.88
2023-04-19T10:14:02.585Z,14.52
2023-04-19T10:16:33.153Z,14.27
2023-04-19T10:19:03.363Z,15.02
2023-04-19T10:21:34.260Z,13.68
2023-04-19T10:24:04.133Z,13.45
2023-04-19T10:26:33.807Z,12.65
2023-04-19T10:29:03.429Z,13.80
2023-04-19T10:31:33.122Z,15.60
2023-04-19T10:34:02.844Z,15.02
2023-04-19T10:36:32.609Z,13.40
2023-04-19T10:39:02.287Z,16.15
2023-04-19T10:42:03.705Z,15.70
2023-04-19T10:44:33.331Z,15.32
2023-04-19T10:47:02.970Z,12.82
2023-04-19T10:49:32.830Z,15.18
2023-04-19T10:52:02.452Z,15.32
2023-04-19T10:54:40.441Z,12.68
2023-04-19T10:57:12.957Z,12.70
2023-04-19T10:59:45.441Z,13.07
2023-04-19T11:02:29.688Z,12.80
2023-04-19T11:05:00.353Z,13.27
2023-04-19T11:07:30.135Z,12.82
2023-04-19T11:09:59.850Z,12.00
2023-04-19T11:12:29.512Z,13.95
2023-04-19T11:15:04.464Z,14.02
2023-04-19T11:17:34.421Z,13.25
2023-04-19T11:20:15.831Z,16.52
2023-04-19T11:22:48.734Z,15.90
2023-04-19T11:25:22.514Z,15.73
2023-04-19T11:27:55.567Z,15.70
2023-04-19T11:30:35.031Z,14.75
2023-04-19T11:33:05.061Z,14.80
2023-04-19T11:35:34.793Z,15.13
2023-04-19T11:38:06.096Z,16.92
2023-04-19T11:40:35.821Z,17.02
2023-04-19T11:43:06.672Z,15.65
2023-04-19T11:45:39.579Z,14.88
2023-04-19T11:48:17.037Z,13.55
2023-04-19T11:50:47.251Z,15.95
2023-04-19T11:53:18.067Z,15.32
2023-04-19T11:55:49.185Z,17.58
2023-04-19T11:58:46.111Z,16.30
2023-04-19T12:01:16.868Z,16.88
2023-04-19T12:03:51.016Z,14.27
2023-04-19T12:06:25.577Z,16.90
2023-04-19T12:08:56.236Z,16.63
2023-04-19T12:11:44.464Z,15.50
2023-04-19T12:14:18.762Z,16.63
2023-04-19T12:16:48.690Z,17.75
2023-04-19T12:19:21.789Z,16.20
2023-04-19T12:21:51.630Z,18.38
2023-04-19T12:24:21.812Z,19.13
2023-04-19T12:26:59.134Z,14.80
2023-04-19T12:29:30.804Z,17.08
2023-04-19T12:32:00.464Z,19.00
2023-04-19T12:34:30.399Z,18.48
2023-04-19T12:37:00.209Z,15.32
2023-04-19T12:39:30.411Z,18.35
2023-04-19T12:42:02.849Z,16.67
2023-04-19T12:44:32.466Z,17.90
2023-04-19T12:47:02.165Z,16.35
2023-04-19T12:49:31.823Z,16.42
2023-04-19T12:52:01.421Z,19.10
2023-04-19T12:54:31.226Z,18.15
2023-04-19T12:57:02.840Z,18.50
2023-04-19T12:59:33.166Z,18.65
2023-04-19T13:02:03.192Z,19.10
2023-04-19T13:04:33.002Z,18.23
2023-04-19T13:07:02.781Z,17.48
2023-04-19T13:09:32.500Z,17.70
2023-04-19T13:12:02.878Z,16.10
2023-04-19T13:14:32.596Z,16.30
2023-04-19T13:17:02.374Z,16.70
2023-04-19T13:19:32.730Z,18.88
2023-04-19T13:22:02.403Z,17.92
2023-04-19T13:24:32.210Z,20.25
2023-04-19T13:27:02.043Z,18.55
2023-04-19T13:29:31.875Z,16.92
2023-04-19T13:32:01.532Z,15.70
2023-04-19T13:34:31.413Z,20.98
2023-04-19T13:37:01.210Z,18.60
2023-04-19T13:39:30.844Z,17.23
2023-04-19T13:42:00.574Z,16.88
2023-04-19T13:44:30.981Z,19.88
2023-04-19T13:47:00.659Z,17.75
2023-04-19T13:49:30.397Z,19.80
2023-04-19T13:52:00.047Z,18.85
2023-04-19T13:54:29.721Z,17.20
2023-04-19T13:56:59.696Z,19.08
2023-04-19T13:59:29.610Z,19.35
2023-04-19T14:01:59.307Z,18.55
2023-04-19T14:04:29.215Z,17.55
2023-04-19T14:06:58.910Z,18.15
2023-04-19T14:09:28.549Z,18.40
2023-04-19T14:11:58.269Z,16.83
2023-04-19T14:14:29.199Z,20.83
2023-04-19T14:17:00.493Z,18.88
2023-04-19T14:19:30.136Z,18.08
2023-04-19T14:21:59.809Z,18.08
2023-04-19T14:24:29.464Z,18.45
2023-04-19T14:27:10.254Z,18.90
2023-04-19T14:29:41.321Z,17.63
2023-04-19T14:34:46.578Z,18.33
2023-04-19T14:37:16.239Z,18.52
2023-04-19T14:39:47.479Z,16.80
2023-04-19T14:42:17.143Z,16.73
2023-04-19T14:44:47.989Z,17.67
2023-04-19T14:47:17.721Z,17.02
2023-04-19T14:49:47.459Z,19.00
2023-04-19T14:52:17.391Z,17.30
2023-04-19T14:54:47.188Z,18.10
2023-04-19T14:57:16.929Z,19.33
2023-04-19T14:59:46.630Z,17.45
2023-04-19T15:02:16.448Z,17.75
2023-04-19T15:04:46.316Z,15.43
2023-04-19T15:07:16.033Z,17.48
2023-04-19T15:09:45.717Z,17.25
2023-04-19T15:12:15.403Z,19.65
2023-04-19T15:14:45.069Z,15.93
2023-04-19T15:17:14.748Z,18.85
2023-04-19T15:19:45.818Z,17.40
2023-04-19T15:22:15.550Z,18.27
2023-04-19T15:24:45.229Z,16.80
2023-04-19T15:27:14.878Z,17.02
2023-04-19T15:29:44.497Z,16.63
2023-04-19T15:32:14.157Z,16.67
2023-04-19T15:34:43.778Z,18.50
2023-04-19T15:37:13.420Z,18.15
2023-04-19T15:39:43.143Z,16.52
2023-04-19T15:42:12.795Z,17.88
2023-04-19T15:44:43.949Z,19.23
2023-04-19T15:47:13.793Z,17.85
2023-04-19T15:49:43.512Z,17.38
2023-04-19T15:52:13.150Z,17.90
2023-04-19T15:54:42.908Z,18.05
2023-04-19T15:57:12.587Z,19.05
2023-04-19T15:59:42.217Z,19.40
2023-04-19T16:02:11.986Z,18.05
2023-04-19T16:04:41.903Z,18.95
2023-04-19T16:07:11.608Z,17.15
2023-04-19T16:09:41.339Z,17.00
2023-04-19T16:12:11.039Z,18.40
2023-04-19T16:14:40.706Z,18.15
2023-04-19T16:17:10.330Z,17.98
2023-04-19T16:19:39.967Z,17.77
2023-04-19T16:22:09.650Z,18.08
2023-04-19T16:24:39.320Z,18.08
2023-04-19T16:27:08.983Z,18.65
2023-04-19T16:29:39.949Z,21.15
2023-04-19T16:32:09.767Z,17.63
2023-04-19T16:34:39.436Z,18.77
2023-04-19T16:37:09.028Z,20.02
2023-04-19T16:39:38.652Z,20.48
2023-04-19T16:42:08.347Z,20.10
2023-04-19T16:44:37.996Z,17.90
2023-04-19T16:47:07.706Z,18.20
2023-04-19T16:49:37.359Z,18.85
2023-04-19T16:52:07.076Z,19.30
2023-04-19T16:54:37.492Z,20.48
2023-04-19T16:57:07.323Z,19.20
2023-04-19T16:59:37.063Z,18.88
2023-04-19T17:02:09.065Z,20.70
2023-04-19T17:04:39.122Z,21.15
2023-04-19T17:07:10.155Z,19.77
2023-04-19T17:09:39.838Z,20.73
2023-04-19T17:12:09.571Z,20.67
2023-04-19T17:14:39.251Z,20.60
2023-04-19T17:17:08.908Z,22.77
2023-04-19T17:19:38.935Z,21.55
2023-04-19T17:22:08.694Z,19.00
2023-04-19T17:24:38.303Z,20.38
2023-04-19T17:27:08.002Z,18.63
2023-04-19T17:29:37.799Z,20.23
2023-04-19T17:32:07.676Z,21.02
2023-04-19T17:34:37.315Z,20.38
2023-04-19T17:37:07.898Z,20.08
2023-04-19T17:39:37.606Z,20.00
2023-04-19T17:42:07.282Z,23.17
2023-04-19T17:44:37.232Z,18.65
2023-04-19T17:47:06.983Z,19.65
2023-04-19T17:49:36.696Z,19.45
2023-04-19T17:52:06.493Z,19.25
2023-04-19T17:54:36.159Z,20.95
2023-04-19T17:57:05.880Z,18.40
2023-04-19T17:59:35.553Z,21.52
2023-04-19T18:02:06.364Z,20.17
2023-04-19T18:04:37.342Z,18.60
2023-04-19T18:07:07.645Z,20.05
2023-04-19T18:09:37.283Z,20.45
2023-04-19T18:12:07.279Z,19.15
2023-04-19T18:14:37.316Z,20.67
2023-04-19T18:17:07.047Z,20.27
2023-04-19T18:19:36.732Z,19.10
2023-04-19T18:22:06.372Z,20.50
2023-04-19T18:24:36.065Z,20.38
2023-04-19T18:27:07.047Z,19.08
2023-04-19T18:29:36.812Z,19.63
2023-04-19T18:32:06.959Z,20.15
2023-04-19T18:34:36.651Z,17.77
2023-04-19T18:37:16.793Z,19.10
2023-04-19T18:39:46.752Z,18.25
2023-04-19T18:42:16.441Z,17.63
2023-04-19T18:44:53.818Z,19.02
2023-04-19T18:47:24.651Z,19.40
2023-04-19T18:50:04.598Z,19.45
2023-04-19T18:52:37.921Z,18.95
2023-04-19T18:55:08.523Z,17.02
2023-04-19T18:57:40.326Z,15.23
2023-04-19T19:00:13.425Z,16.98
2023-04-19T19:02:43.968Z,16.92
2023-04-19T19:05:15.061Z,16.15
2023-04-19T19:07:45.471Z,16.02
2023-04-19T19:10:20.976Z,16.88
2023-04-19T19:12:52.432Z,16.08
2023-04-19T19:15:22.078Z,16.13
2023-04-19T19:17:51.789Z,16.58
2023-04-19T19:20:22.042Z,17.55
2023-04-19T19:22:51.811Z,16.27
2023-04-19T19:25:21.487Z,17.23
2023-04-19T19:28:06.429Z,18.55
2023-04-19T19:30:41.103Z,14.85
2023-04-19T19:33:10.925Z,16.50
2023-04-19T19:35:40.909Z,17.48
2023-04-19T19:38:10.584Z,14.02
2023-04-19T19:41:05.429Z,14.90
2023-04-19T19:43:30.030Z,15.52
2023-04-19T19:45:59.754Z,15.63
2023-04-19T19:48:30.405Z,14.95
2023-04-19T19:53:33.999Z,14.73
2023-04-19T19:56:04.326Z,14.35
2023-04-19T19:58:49.422Z,15.00
2023-04-19T20:01:22.051Z,15.68
2023-04-19T20:03:53.045Z,15.30
2023-04-19T20:08:57.731Z,13.93
2023-04-19T20:11:27.895Z,13.68
2023-04-19T20:13:57.656Z,12.77
2023-04-19T20:16:27.411Z,14.55
2023-04-19T20:18:59.258Z,13.35
2023-04-19T20:21:29.576Z,13.52
2023-04-19T20:23:59.241Z,13.15
2023-04-19T20:26:28.940Z,13.32
2023-04-19T20:28:58.602Z,11.85
2023-04-19T20:31:28.366Z,13.95
2023-04-19T20:33:58.020Z,12.60
2023-04-19T20:36:29.142Z,12.77
2023-04-19T20:39:00.217Z,12.65
2023-04-19T20:41:29.922Z,12.52
2023-04-19T20:44:01.263Z,12.93
2023-04-19T20:46:30.990Z,13.98
2023-04-19T20:49:00.786Z,13.13
2023-04-19T20:51:30.471Z,13.18
2023-04-19T20:54:00.366Z,12.65
2023-04-19T20:56:30.066Z,14.02
2023-04-19T20:58:59.758Z,14.25
2023-04-19T21:01:29.536Z,14.88
2023-04-19T21:03:59.479Z,13.23
2023-04-19T21:06:29.338Z,14.18
2023-04-19T21:09:00.797Z,12.55
2023-04-19T21:11:30.486Z,12.85
2023-04-19T21:14:00.191Z,14.48
2023-04-19T21:16:29.853Z,14.82
2023-04-19T21:18:59.589Z,13.35
2023-04-19T21:21:30.554Z,13.98
2023-04-19T21:24:01.911Z,15.75
2023-04-19T21:26:31.713Z,13.82
2023-04-19T21:29:01.362Z,15.55
2023-04-19T21:31:31.033Z,15.32
2023-04-19T21:34:00.704Z,15.77
2023-04-19T21:36:30.563Z,13.32
2023-04-19T21:39:00.202Z,17.15
2023-04-19T21:41:29.814Z,14.30
2023-04-19T21:43:59.395Z,15.70
2023-04-19T21:46:29.032Z,17.77
2023-04-19T21:48:58.661Z,15.80
2023-04-19T21:51:29.151Z,15.75
2023-04-19T21:53:58.844Z,14.90
2023-04-19T21:56:28.553Z,15.70
2023-04-19T21:58:58.255Z,16.45
2023-04-19T22:01:29.170Z,14.63
2023-04-19T22:04:00.297Z,15.70
2023-04-19T22:06:30.005Z,15.98
2023-04-19T22:09:00.931Z,14.98
2023-04-19T22:11:35.448Z,16.08
2023-04-19T22:14:05.283Z,16.02
2023-04-19T22:16:35.094Z,15.57
2023-04-19T22:19:05.066Z,16.95
2023-04-19T22:21:34.685Z,15.57
2023-04-19T22:24:05.205Z,15.02
2023-04-19T22:26:35.973Z,13.43
2023-04-19T22:29:05.665Z,15.30
2023-04-19T22:31:35.423Z,16.25
2023-04-19T22:34:05.083Z,15.45
2023-04-19T22:36:34.712Z,13.27
2023-04-19T22:39:04.690Z,12.00
2023-04-19T22:41:35.400Z,13.43
2023-04-19T22:44:05.357Z,12.52
2023-04-19T22:46:35.107Z,11.95
2023-04-19T22:49:05.009Z,12.95
2023-04-19T22:51:35.597Z,14.38
2023-04-19T22:54:05.854Z,11.93
2023-04-19T22:56:35.487Z,13.18
2023-04-19T22:59:05.150Z,13.30
2023-04-19T23:01:34.892Z,13.50
2023-04-19T23:04:04.654Z,13.35
2023-04-19T23:06:34.562Z,13.82
2023-04-19T23:09:04.485Z,13.75
2023-04-19T23:11:34.134Z,12.15
2023-04-19T23:14:04.240Z,11.90
2023-04-19T23:16:34.890Z,13.55
2023-04-19T23:19:04.587Z,13.07
2023-04-19T23:21:34.296Z,12.45
2023-04-19T23:24:04.002Z,13.98
2023-04-19T23:26:33.670Z,13.90
2023-04-19T23:29:03.311Z,14.07
2023-04-19T23:31:35.743Z,16.10
2023-04-19T23:34:05.495Z,15.82
2023-04-19T23:36:35.186Z,17.25
2023-04-19T23:39:04.978Z,19.80
2023-04-19T23:41:34.640Z,18.45
2023-04-19T23:44:04.336Z,17.40
2023-04-19T23:46:33.972Z,25.92
2023-04-19T23:49:03.638Z,19.83
2023-04-19T23:51:34.396Z,19.15
2023-04-19T23:54:04.020Z,20.38
2023-04-19T23:56:33.670Z,19.60
2023-04-19T23:59:03.327Z,22.83
